createdAt,value
2023-02-26T00:00:44.161Z,75.30
2023-02-26T00:03:11.214Z,75.58
2023-02-26T00:05:37.872Z,75.98
2023-02-26T00:08:06.109Z,75.89
2023-02-26T00:10:32.717Z,75.42
2023-02-26T00:12:59.524Z,75.50
2023-02-26T00:15:26.969Z,75.51
2023-02-26T00:18:04.695Z,75.60
2023-02-26T00:20:31.408Z,75.87
2023-02-26T00:22:58.058Z,76.17
2023-02-26T00:25:24.568Z,76.27
2023-02-26T00:27:51.337Z,76.47
2023-02-26T00:30:18.098Z,76.88
2023-02-26T00:32:44.979Z,77.13
2023-02-26T00:35:13.733Z,77.18
2023-02-26T00:37:48.770Z,77.51
2023-02-26T00:40:23.268Z,77.42
2023-02-26T00:42:49.940Z,76.86
2023-02-26T00:45:16.746Z,77.15
2023-02-26T00:47:54.355Z,76.58
2023-02-26T00:50:25.205Z,77.36
2023-02-26T00:53:08.899Z,77.19
2023-02-26T00:55:35.479Z,77.20
2023-02-26T00:58:02.070Z,77.19
2023-02-26T01:00:29.541Z,77.06
2023-02-26T01:02:56.758Z,77.11
2023-02-26T01:05:23.481Z,77.14
2023-02-26T01:07:59.157Z,76.54
2023-02-26T01:10:26.037Z,76.45
2023-02-26T01:12:52.864Z,76.66
2023-02-26T01:15:19.621Z,76.59
2023-02-26T01:18:07.786Z,76.79
2023-02-26T01:20:41.753Z,76.07
2023-02-26T01:23:12.932Z,76.77
2023-02-26T01:25:41.382Z,77.42
2023-02-26T01:28:08.369Z,76.85
2023-02-26T01:30:35.097Z,77.16
2023-02-26T01:33:07.385Z,77.26
2023-02-26T01:35:48.278Z,77.43
2023-02-26T01:38:20.772Z,77.39
2023-02-26T01:41:05.788Z,77.37
2023-02-26T01:43:45.039Z,77.69
2023-02-26T01:46:19.196Z,77.47
2023-02-26T01:48:49.113Z,77.40
2023-02-26T01:51:15.633Z,77.84
2023-02-26T01:53:42.163Z,77.73
2023-02-26T01:56:14.154Z,77.75
2023-02-26T01:58:40.690Z,78.01
2023-02-26T02:01:08.200Z,78.23
2023-02-26T02:03:35.962Z,78.34
2023-02-26T02:06:16.763Z,78.29
2023-02-26T02:08:43.388Z,77.89
2023-02-26T02:11:10.451Z,77.96
2023-02-26T02:13:40.111Z,78.28
2023-02-26T02:16:16.940Z,77.99
2023-02-26T02:18:47.495Z,78.20
2023-02-26T02:21:13.993Z,78.33
2023-02-26T02:23:47.625Z,78.38
2023-02-26T02:26:14.252Z,78.34
2023-02-26T02:28:58.909Z,78.40
2023-02-26T02:31:25.910Z,78.27
2023-02-26T02:33:52.436Z,78.63
2023-02-26T02:36:28.961Z,78.46
2023-02-26T02:38:56.865Z,78.54
2023-02-26T02:41:43.636Z,78.84
2023-02-26T02:44:12.041Z,78.94
2023-02-26T02:46:39.345Z,78.89
2023-02-26T02:49:07.543Z,78.87
2023-02-26T02:51:34.905Z,79.20
2023-02-26T02:54:01.415Z,79.35
2023-02-26T02:56:47.577Z,79.10
2023-02-26T02:59:23.309Z,79.23
2023-02-26T03:01:51.472Z,79.40
2023-02-26T03:04:18.001Z,79.39
2023-02-26T03:06:46.845Z,79.28
2023-02-26T03:09:14.120Z,79.03
2023-02-26T03:11:41.113Z,79.14
2023-02-26T03:14:10.334Z,79.08
2023-02-26T03:16:56.230Z,79.55
2023-02-26T03:19:41.123Z,79.91
2023-02-26T03:22:10.233Z,80.19
2023-02-26T03:25:09.342Z,80.31
2023-02-26T03:27:36.184Z,79.96
2023-02-26T03:30:05.531Z,79.41
2023-02-26T03:32:51.617Z,79.19
2023-02-26T03:35:33.723Z,79.21
2023-02-26T03:38:01.762Z,79.14
2023-02-26T03:40:30.526Z,79.10
2023-02-26T03:43:00.329Z,79.40
2023-02-26T03:45:28.308Z,79.10
2023-02-26T03:47:55.314Z,79.08
2023-02-26T03:50:27.602Z,79.13
2023-02-26T03:53:15.825Z,79.15
2023-02-26T03:55:55.338Z,79.14
2023-02-26T03:58:43.014Z,79.40
2023-02-26T04:01:36.511Z,79.53
2023-02-26T04:04:04.688Z,79.45
2023-02-26T04:06:31.524Z,79.57
2023-02-26T04:08:58.166Z,79.55
2023-02-26T04:11:25.858Z,79.59
2023-02-26T04:13:52.627Z,79.66
2023-02-26T04:16:19.347Z,79.70
2023-02-26T04:18:46.365Z,79.39
2023-02-26T04:21:16.949Z,79.47
2023-02-26T04:23:43.557Z,79.54
2023-02-26T04:26:10.346Z,79.52
2023-02-26T04:28:40.069Z,79.87
2023-02-26T04:31:07.012Z,80.12
2023-02-26T04:33:33.843Z,80.21
2023-02-26T04:36:00.879Z,80.18
2023-02-26T04:38:27.547Z,79.95
2023-02-26T04:40:54.393Z,79.71
2023-02-26T04:43:21.342Z,79.60
2023-02-26T04:45:58.851Z,79.85
2023-02-26T04:48:25.499Z,79.88
2023-02-26T04:50:52.073Z,79.95
2023-02-26T04:53:19.033Z,80.17
2023-02-26T04:55:47.524Z,80.16
2023-02-26T04:58:14.075Z,79.88
2023-02-26T05:00:40.657Z,79.78
2023-02-26T05:03:07.381Z,79.73
2023-02-26T05:05:33.929Z,79.65
2023-02-26T05:08:00.489Z,79.53
2023-02-26T05:10:27.129Z,79.58
2023-02-26T05:12:53.667Z,79.55
2023-02-26T05:15:20.293Z,79.60
2023-02-26T05:17:46.814Z,79.75
2023-02-26T05:20:13.457Z,79.67
2023-02-26T05:22:40.038Z,79.38
2023-02-26T05:25:07.585Z,79.63
2023-02-26T05:27:34.449Z,79.69
2023-02-26T05:30:01.000Z,79.84
2023-02-26T05:32:27.664Z,79.77
2023-02-26T05:34:56.424Z,79.99
2023-02-26T05:37:22.973Z,79.96
2023-02-26T05:39:49.556Z,79.94
2023-02-26T05:42:17.204Z,79.96
2023-02-26T05:44:43.751Z,79.85
2023-02-26T05:47:10.286Z,79.68
2023-02-26T05:49:37.288Z,79.85
2023-02-26T05:52:04.121Z,79.71
2023-02-26T05:54:30.682Z,79.86
2023-02-26T05:56:57.233Z,79.78
2023-02-26T05:59:23.793Z,79.67
2023-02-26T06:01:50.383Z,79.74
2023-02-26T06:04:17.493Z,79.68
2023-02-26T06:06:44.054Z,79.72
2023-02-26T06:09:10.599Z,79.72
2023-02-26T06:11:38.572Z,79.89
2023-02-26T06:14:05.214Z,80.07
2023-02-26T06:16:33.023Z,80.10
2023-02-26T06:18:59.578Z,80.28
2023-02-26T06:21:26.614Z,80.23
2023-02-26T06:23:53.154Z,80.18
2023-02-26T06:26:20.621Z,80.46
2023-02-26T06:28:48.663Z,80.26
2023-02-26T06:31:15.301Z,80.45
2023-02-26T06:33:41.907Z,80.35
2023-02-26T06:36:08.557Z,80.09
2023-02-26T06:38:35.150Z,80.22
2023-02-26T06:41:01.664Z,79.98
2023-02-26T06:43:28.210Z,79.76
2023-02-26T06:45:57.284Z,79.91
2023-02-26T06:48:23.882Z,79.79
2023-02-26T06:50:50.379Z,79.91
2023-02-26T06:53:16.956Z,79.28
2023-02-26T06:55:44.503Z,79.36
2023-02-26T06:58:11.095Z,79.39
2023-02-26T07:00:38.115Z,79.32
2023-02-26T07:03:04.822Z,79.17
2023-02-26T07:05:31.890Z,79.76
2023-02-26T07:07:58.553Z,79.84
2023-02-26T07:10:25.460Z,80.01
2023-02-26T07:12:52.045Z,80.16
2023-02-26T07:15:18.594Z,79.69
2023-02-26T07:17:45.160Z,80.16
2023-02-26T07:20:12.471Z,80.33
2023-02-26T07:22:39.033Z,79.79
2023-02-26T07:25:06.026Z,79.64
2023-02-26T07:27:33.493Z,79.07
2023-02-26T07:30:00.463Z,78.62
2023-02-26T07:32:27.093Z,77.51
2023-02-26T07:34:53.693Z,77.84
2023-02-26T07:37:20.237Z,78.11
2023-02-26T07:39:46.765Z,78.32
2023-02-26T07:42:13.347Z,78.13
2023-02-26T07:44:41.992Z,77.91
2023-02-26T07:47:08.598Z,78.42
2023-02-26T07:49:35.648Z,77.88
2023-02-26T07:52:02.296Z,78.75
2023-02-26T07:54:28.849Z,77.65
2023-02-26T07:56:55.401Z,76.86
2023-02-26T07:59:22.012Z,77.35
2023-02-26T08:01:49.043Z,76.98
2023-02-26T08:04:15.683Z,77.27
2023-02-26T08:06:42.253Z,76.70
2023-02-26T08:09:08.823Z,75.87
2023-02-26T08:11:39.760Z,75.88
2023-02-26T08:14:06.960Z,75.42
2023-02-26T08:16:33.541Z,75.61
2023-02-26T08:19:00.104Z,75.00
2023-02-26T08:21:27.004Z,75.25
2023-02-26T08:23:54.338Z,75.83
2023-02-26T08:26:20.909Z,75.70
2023-02-26T08:28:48.366Z,75.35
2023-02-26T08:31:15.167Z,75.31
2023-02-26T08:33:42.264Z,75.51
2023-02-26T08:36:08.972Z,75.53
2023-02-26T08:38:35.534Z,75.90
2023-02-26T08:41:02.099Z,73.25
2023-02-26T08:43:29.906Z,74.69
2023-02-26T08:45:56.825Z,74.12
2023-02-26T08:48:23.628Z,73.35
2023-02-26T08:50:50.343Z,73.98
2023-02-26T08:53:16.939Z,72.58
2023-02-26T08:55:45.019Z,73.67
2023-02-26T08:58:11.546Z,71.82
2023-02-26T09:00:38.083Z,71.32
2023-02-26T09:03:04.660Z,71.05
2023-02-26T09:05:31.182Z,71.75
2023-02-26T09:07:57.720Z,73.11
2023-02-26T09:10:24.259Z,73.09
2023-02-26T09:12:50.837Z,73.16
2023-02-26T09:15:18.181Z,71.90
2023-02-26T09:17:45.374Z,73.19
2023-02-26T09:20:12.457Z,72.43
2023-02-26T09:22:39.048Z,73.06
2023-02-26T09:25:06.037Z,73.13
2023-02-26T09:27:32.740Z,73.73
2023-02-26T09:29:59.303Z,73.18
2023-02-26T09:32:27.078Z,73.27
2023-02-26T09:34:53.909Z,73.69
2023-02-26T09:37:20.495Z,73.78
2023-02-26T09:39:47.055Z,73.80
2023-02-26T09:42:24.356Z,74.33
2023-02-26T09:44:51.585Z,74.39
2023-02-26T09:47:31.859Z,74.61
2023-02-26T09:50:09.847Z,74.32
2023-02-26T09:52:38.108Z,74.79
2023-02-26T09:55:21.239Z,74.43
2023-02-26T09:57:48.008Z,75.29
2023-02-26T10:00:14.947Z,75.00
2023-02-26T10:02:54.587Z,75.19
2023-02-26T10:05:26.901Z,75.93
2023-02-26T10:07:58.248Z,73.91
2023-02-26T10:10:48.201Z,73.17
2023-02-26T10:13:26.004Z,73.76
2023-02-26T10:15:52.558Z,73.21
2023-02-26T10:18:27.166Z,73.61
2023-02-26T10:20:58.954Z,73.52
2023-02-26T10:23:31.814Z,72.51
2023-02-26T10:26:02.212Z,71.82
2023-02-26T10:28:28.694Z,71.08
2023-02-26T10:30:59.461Z,69.76
2023-02-26T10:33:29.690Z,70.07
2023-02-26T10:35:59.421Z,70.68
2023-02-26T10:38:26.899Z,68.42
2023-02-26T10:40:54.968Z,70.41
2023-02-26T10:43:32.688Z,68.88
2023-02-26T10:46:03.582Z,69.43
2023-02-26T10:48:49.445Z,68.56
2023-02-26T10:51:20.074Z,69.20
2023-02-26T10:53:51.304Z,69.53
2023-02-26T10:56:21.912Z,69.79
2023-02-26T10:58:48.577Z,70.48
2023-02-26T11:01:16.986Z,69.30
2023-02-26T11:03:44.620Z,69.06
2023-02-26T11:06:12.987Z,68.76
2023-02-26T11:08:43.490Z,71.78
2023-02-26T11:11:10.097Z,68.23
2023-02-26T11:13:37.616Z,69.57
2023-02-26T11:16:14.837Z,65.63
2023-02-26T11:18:43.911Z,66.48
2023-02-26T11:21:14.212Z,66.28
2023-02-26T11:23:40.777Z,66.43
2023-02-26T11:26:08.493Z,65.01
2023-02-26T11:28:36.391Z,61.81
2023-02-26T11:31:07.019Z,63.50
2023-02-26T11:33:36.505Z,63.69
2023-02-26T11:36:03.358Z,62.05
2023-02-26T11:38:29.965Z,61.07
2023-02-26T11:40:57.848Z,61.99
2023-02-26T11:43:26.050Z,62.89
2023-02-26T11:45:53.979Z,63.27
2023-02-26T11:48:23.038Z,64.41
2023-02-26T11:50:50.268Z,64.31
2023-02-26T11:53:18.971Z,64.68
2023-02-26T11:55:48.104Z,66.29
2023-02-26T11:58:22.840Z,64.42
2023-02-26T12:00:50.120Z,65.78
2023-02-26T12:03:24.157Z,66.56
2023-02-26T12:05:53.346Z,65.73
2023-02-26T12:08:26.112Z,66.21
2023-02-26T12:10:57.652Z,65.84
2023-02-26T12:13:26.812Z,65.39
2023-02-26T12:16:17.043Z,66.32
2023-02-26T12:18:53.589Z,65.53
2023-02-26T12:21:38.944Z,67.27
2023-02-26T12:24:09.521Z,68.25
2023-02-26T12:26:40.510Z,67.35
2023-02-26T12:29:26.234Z,65.93
2023-02-26T12:32:05.888Z,67.25
2023-02-26T12:34:51.374Z,68.04
2023-02-26T12:37:36.680Z,68.17
2023-02-26T12:40:22.049Z,66.76
2023-02-26T12:42:51.861Z,66.21
2023-02-26T12:45:41.434Z,64.52
2023-02-26T12:48:13.696Z,66.20
2023-02-26T12:50:49.100Z,62.56
2023-02-26T12:53:34.835Z,61.72
2023-02-26T12:56:16.427Z,64.17
2023-02-26T12:58:46.085Z,62.91
2023-02-26T13:01:24.990Z,62.82
2023-02-26T13:03:54.746Z,62.22
2023-02-26T13:06:40.064Z,63.68
2023-02-26T13:09:19.566Z,61.78
2023-02-26T13:11:59.884Z,61.39
2023-02-26T13:14:33.375Z,61.83
2023-02-26T13:17:14.777Z,61.75
2023-02-26T13:19:43.461Z,63.59
2023-02-26T13:22:14.123Z,61.25
2023-02-26T13:24:42.251Z,62.29
2023-02-26T13:27:09.281Z,61.61
2023-02-26T13:29:37.057Z,61.17
2023-02-26T13:32:13.832Z,61.05
2023-02-26T13:35:00.305Z,62.39
2023-02-26T13:37:27.249Z,59.46
2023-02-26T13:39:59.570Z,59.72
2023-02-26T13:42:26.633Z,60.81
2023-02-26T13:45:02.368Z,60.65
2023-02-26T13:47:34.896Z,61.37
2023-02-26T13:50:20.354Z,60.12
2023-02-26T13:52:54.040Z,60.24
2023-02-26T13:55:39.107Z,62.72
2023-02-26T13:58:16.554Z,62.14
2023-02-26T14:00:47.720Z,63.81
2023-02-26T14:03:17.361Z,62.99
2023-02-26T14:05:46.648Z,59.94
2023-02-26T14:08:27.522Z,60.99
2023-02-26T14:11:03.040Z,60.16
2023-02-26T14:13:39.321Z,60.16
2023-02-26T14:16:21.054Z,59.80
2023-02-26T14:18:47.534Z,60.55
2023-02-26T14:21:32.904Z,58.41
2023-02-26T14:24:03.352Z,60.65
2023-02-26T14:26:32.294Z,60.41
2023-02-26T14:29:08.244Z,60.70
2023-02-26T14:31:50.320Z,60.00
2023-02-26T14:34:22.309Z,58.22
2023-02-26T14:36:49.850Z,57.91
2023-02-26T14:39:25.573Z,57.45
2023-02-26T14:41:53.544Z,57.11
2023-02-26T14:44:24.256Z,57.24
2023-02-26T14:46:50.916Z,56.50
2023-02-26T14:49:28.671Z,57.46
2023-02-26T14:52:24.685Z,58.30
2023-02-26T14:55:00.767Z,57.98
2023-02-26T14:57:33.549Z,57.66
2023-02-26T15:00:13.392Z,55.70
2023-02-26T15:02:52.712Z,58.65
2023-02-26T15:05:28.459Z,56.42
2023-02-26T15:07:59.591Z,56.77
2023-02-26T15:10:45.029Z,57.77
2023-02-26T15:13:14.261Z,57.03
2023-02-26T15:16:04.125Z,59.61
2023-02-26T15:18:46.203Z,60.71
2023-02-26T15:21:48.452Z,59.92
2023-02-26T15:24:16.772Z,60.54
2023-02-26T15:26:51.668Z,59.48
2023-02-26T15:29:18.230Z,59.78
2023-02-26T15:31:53.409Z,60.09
2023-02-26T15:34:20.873Z,59.89
2023-02-26T15:36:53.237Z,59.29
2023-02-26T15:39:20.482Z,60.47
2023-02-26T15:41:47.740Z,60.07
2023-02-26T15:44:15.569Z,60.03
2023-02-26T15:46:44.589Z,59.75
2023-02-26T15:49:17.062Z,58.28
2023-02-26T15:51:45.054Z,57.41
2023-02-26T15:54:15.554Z,56.95
2023-02-26T15:56:42.430Z,56.43
2023-02-26T15:59:18.095Z,56.22
2023-02-26T16:01:44.696Z,56.56
2023-02-26T16:04:12.984Z,55.46
2023-02-26T16:06:45.993Z,56.07
2023-02-26T16:09:17.134Z,58.12
2023-02-26T16:11:44.037Z,57.52
2023-02-26T16:14:13.705Z,57.99
2023-02-26T16:16:47.329Z,58.49
2023-02-26T16:19:33.927Z,56.08
2023-02-26T16:22:01.951Z,55.56
2023-02-26T16:24:29.130Z,58.37
2023-02-26T16:26:56.948Z,57.10
2023-02-26T16:29:27.693Z,55.78
2023-02-26T16:31:55.370Z,55.40
2023-02-26T16:34:28.479Z,55.29
2023-02-26T16:36:55.032Z,55.79
2023-02-26T16:39:25.527Z,55.63
2023-02-26T16:42:09.444Z,56.63
2023-02-26T16:44:38.079Z,56.40
2023-02-26T16:47:04.615Z,56.02
2023-02-26T16:49:32.498Z,57.31
2023-02-26T16:51:59.562Z,57.53
2023-02-26T16:54:36.060Z,56.85
2023-02-26T16:57:08.585Z,57.12
2023-02-26T16:59:36.015Z,56.59
2023-02-26T17:02:10.424Z,56.60
2023-02-26T17:04:37.432Z,56.85
2023-02-26T17:07:22.822Z,56.77
2023-02-26T17:09:51.084Z,57.00
2023-02-26T17:12:21.716Z,57.03
2023-02-26T17:14:53.073Z,57.13
2023-02-26T17:17:20.117Z,58.57
2023-02-26T17:19:46.769Z,58.05
2023-02-26T17:22:14.243Z,58.81
2023-02-26T17:24:41.663Z,59.29
2023-02-26T17:27:08.309Z,60.09
2023-02-26T17:29:37.363Z,60.70
2023-02-26T17:32:17.806Z,59.38
2023-02-26T17:34:44.537Z,60.28
2023-02-26T17:37:11.931Z,59.86
2023-02-26T17:39:38.491Z,60.97
2023-02-26T17:42:09.785Z,61.17
2023-02-26T17:44:36.417Z,61.66
2023-02-26T17:47:02.953Z,62.38
2023-02-26T17:49:29.500Z,61.67
2023-02-26T17:51:56.073Z,61.91
2023-02-26T17:54:22.619Z,60.81
2023-02-26T17:56:49.952Z,61.46
2023-02-26T17:59:16.618Z,59.91
2023-02-26T18:01:43.175Z,61.20
2023-02-26T18:04:10.037Z,61.46
2023-02-26T18:06:37.204Z,59.51
2023-02-26T18:09:06.197Z,58.35
2023-02-26T18:11:32.823Z,60.25
2023-02-26T18:13:59.436Z,59.99
2023-02-26T18:16:32.117Z,59.41
2023-02-26T18:18:59.604Z,60.27
2023-02-26T18:21:27.357Z,60.10
2023-02-26T18:23:57.633Z,59.86
2023-02-26T18:26:25.667Z,59.71
2023-02-26T18:28:52.439Z,59.78
2023-02-26T18:31:20.091Z,60.02
2023-02-26T18:33:46.799Z,61.41
2023-02-26T18:36:29.925Z,60.43
2023-02-26T18:39:01.558Z,60.02
2023-02-26T18:41:29.104Z,59.94
2023-02-26T18:43:55.864Z,60.60
2023-02-26T18:46:22.605Z,61.80
2023-02-26T18:48:49.189Z,61.11
2023-02-26T18:51:15.767Z,60.43
2023-02-26T18:53:42.269Z,60.63
2023-02-26T18:56:08.838Z,61.57
2023-02-26T18:58:35.409Z,60.14
2023-02-26T19:01:05.387Z,60.70
2023-02-26T19:03:31.972Z,61.22
2023-02-26T19:05:59.361Z,61.92
2023-02-26T19:08:25.954Z,61.61
2023-02-26T19:10:52.923Z,61.35
2023-02-26T19:13:19.521Z,62.72
2023-02-26T19:15:46.238Z,62.75
2023-02-26T19:18:12.772Z,62.24
2023-02-26T19:20:39.305Z,62.16
2023-02-26T19:23:06.893Z,62.16
2023-02-26T19:25:34.065Z,62.09
2023-02-26T19:28:00.636Z,62.82
2023-02-26T19:30:27.328Z,61.93
2023-02-26T19:32:54.707Z,62.55
2023-02-26T19:35:21.649Z,62.93
2023-02-26T19:37:48.289Z,62.86
2023-02-26T19:40:19.650Z,62.42
2023-02-26T19:42:46.445Z,62.16
2023-02-26T19:45:14.189Z,62.83
2023-02-26T19:47:40.988Z,63.01
2023-02-26T19:50:08.375Z,63.32
2023-02-26T19:52:37.740Z,63.85
2023-02-26T19:55:05.364Z,63.03
2023-02-26T19:57:32.245Z,63.37
2023-02-26T19:59:59.736Z,62.71
2023-02-26T20:02:26.577Z,63.80
2023-02-26T20:04:53.602Z,64.43
2023-02-26T20:07:20.229Z,62.85
2023-02-26T20:09:48.786Z,64.04
2023-02-26T20:12:16.186Z,64.32
2023-02-26T20:14:43.795Z,63.49
2023-02-26T20:17:10.421Z,63.35
2023-02-26T20:19:36.988Z,63.64
2023-02-26T20:22:03.649Z,63.92
2023-02-26T20:24:32.887Z,63.20
2023-02-26T20:27:00.407Z,63.65
2023-02-26T20:29:27.018Z,63.98
2023-02-26T20:31:53.968Z,65.32
2023-02-26T20:34:20.681Z,65.32
2023-02-26T20:36:54.564Z,65.60
2023-02-26T20:39:22.238Z,65.08
2023-02-26T20:41:48.820Z,65.57
2023-02-26T20:44:15.490Z,65.62
2023-02-26T20:46:42.042Z,65.78
2023-02-26T20:49:11.552Z,64.97
2023-02-26T20:51:39.311Z,65.49
2023-02-26T20:54:05.882Z,65.84
2023-02-26T20:56:32.420Z,64.70
2023-02-26T20:58:59.066Z,66.58
2023-02-26T21:01:26.254Z,66.34
2023-02-26T21:03:54.258Z,66.65
2023-02-26T21:06:20.786Z,66.64
2023-02-26T21:08:47.331Z,66.45
2023-02-26T21:11:14.063Z,66.07
2023-02-26T21:13:40.670Z,66.14
2023-02-26T21:16:07.234Z,66.54
2023-02-26T21:18:34.205Z,67.00
2023-02-26T21:21:02.917Z,67.29
2023-02-26T21:23:30.727Z,67.26
2023-02-26T21:25:57.327Z,67.05
2023-02-26T21:28:23.877Z,67.40
2023-02-26T21:30:53.744Z,66.03
2023-02-26T21:33:20.375Z,66.86
2023-02-26T21:35:50.609Z,67.71
2023-02-26T21:38:18.914Z,66.90
2023-02-26T21:40:45.962Z,66.27
2023-02-26T21:43:12.566Z,66.96
2023-02-26T21:45:39.190Z,67.21
2023-02-26T21:48:05.795Z,66.75
2023-02-26T21:50:32.766Z,66.36
2023-02-26T21:52:59.351Z,66.97
2023-02-26T21:55:25.928Z,66.44
2023-02-26T21:57:52.457Z,66.98
2023-02-26T22:00:19.291Z,66.55
2023-02-26T22:02:46.025Z,67.10
2023-02-26T22:05:12.621Z,67.15
2023-02-26T22:07:39.129Z,66.78
2023-02-26T22:10:06.299Z,67.63
2023-02-26T22:12:33.133Z,67.41
2023-02-26T22:14:59.680Z,67.40
2023-02-26T22:17:26.208Z,67.26
2023-02-26T22:19:53.075Z,67.57
2023-02-26T22:22:19.693Z,67.51
2023-02-26T22:24:46.244Z,68.12
2023-02-26T22:27:12.820Z,68.42
2023-02-26T22:29:39.478Z,68.20
2023-02-26T22:32:07.326Z,67.72
2023-02-26T22:34:34.342Z,68.47
2023-02-26T22:37:01.119Z,68.53
2023-02-26T22:39:27.817Z,69.08
2023-02-26T22:41:54.377Z,68.85
2023-02-26T22:44:20.975Z,68.51
2023-02-26T22:46:47.573Z,69.04
2023-02-26T22:49:14.256Z,68.74
2023-02-26T22:51:40.841Z,69.22
2023-02-26T22:54:07.352Z,69.38
2023-02-26T22:56:34.037Z,69.12
2023-02-26T22:59:00.643Z,69.29
2023-02-26T23:01:29.908Z,69.20
2023-02-26T23:03:56.489Z,69.84
2023-02-26T23:06:23.026Z,69.80
2023-02-26T23:08:49.561Z,69.35
2023-02-26T23:11:16.113Z,69.45
2023-02-26T23:13:42.675Z,69.37
2023-02-26T23:16:10.135Z,69.76
2023-02-26T23:18:37.259Z,69.75
2023-02-26T23:21:04.560Z,70.36
2023-02-26T23:23:31.166Z,70.14
2023-02-26T23:25:57.782Z,69.56
2023-02-26T23:28:25.411Z,69.61
2023-02-26T23:30:52.591Z,70.46
2023-02-26T23:33:19.284Z,69.80
2023-02-26T23:35:45.829Z,69.92
2023-02-26T23:38:12.327Z,70.26
2023-02-26T23:40:38.873Z,70.56
2023-02-26T23:43:05.480Z,70.69
2023-02-26T23:45:32.035Z,70.82
2023-02-26T23:47:58.564Z,70.37
2023-02-26T23:50:25.130Z,70.04
2023-02-26T23:52:51.652Z,70.73
2023-02-26T23:55:18.603Z,70.63
2023-02-26T23:57:45.147Z,70.62
